Time;durP1;ratioP1;P1;durP2;ratioP2;P2;SDS_P1;SDS_P2;PMS_P1;PMS_P2;Temp;Humidity;BMP_temperature;BMP_pressure;BME280_temperature;BME280_humidity;BME280_pressure;Samples;Min_cycle;Max_cycle;Signal;HPM_P1;HPM_P2
2021/04/06 00:01:05;;;;;;;3.57;0.60;;;;;;;-1.71;72.91;99315.91;2042507;77;22899;-67
2021/04/06 00:04:10;;;;;;;3.26;1.66;;;;;;;-1.77;72.59;99308.91;2042456;79;20212;-66
2021/04/06 00:07:13;;;;;;;1.29;0.67;;;;;;;-1.80;72.36;99308.72;2042842;79;20327;-66
2021/04/06 00:10:28;;;;;;;2.23;0.58;;;;;;;-1.82;72.23;99310.34;2043304;79;20168;-66
2021/04/06 00:13:36;;;;;;;1.86;0.63;;;;;;;-1.86;72.29;99294.09;2042602;79;20180;-66
2021/04/06 00:16:41;;;;;;;3.14;1.10;;;;;;;-1.92;72.31;99298.06;2041629;77;21304;-66
2021/04/06 00:19:45;;;;;;;2.46;0.67;;;;;;;-1.96;72.99;99297.06;2042747;79;20191;-67
2021/04/06 00:22:48;;;;;;;5.60;1.27;;;;;;;-2.00;72.98;99295.16;2042820;79;20647;-66
2021/04/06 00:25:51;;;;;;;2.08;0.70;;;;;;;-2.09;72.78;99294.78;2042299;79;20164;-66
2021/04/06 00:28:53;;;;;;;3.28;1.18;;;;;;;-2.14;72.96;99291.16;2042819;79;20229;-66
2021/04/06 00:31:57;;;;;;;2.82;0.77;;;;;;;-2.16;73.35;99293.63;2043363;76;43039;-66
2021/04/06 00:35:00;;;;;;;2.29;0.62;;;;;;;-2.17;73.46;99296.09;2042796;79;20202;-66
2021/04/06 00:38:08;;;;;;;3.23;0.70;;;;;;;-2.16;73.77;99297.84;2042369;79;20578;-67
2021/04/06 00:41:12;;;;;;;3.56;0.79;;;;;;;-2.15;73.71;99289.44;2043270;79;20190;-66
2021/04/06 00:44:16;;;;;;;2.76;0.70;;;;;;;-2.19;73.61;99293.50;2042541;79;20768;-67
2021/04/06 00:47:27;;;;;;;2.15;0.80;;;;;;;-2.14;73.69;99296.25;2043531;77;24297;-66
2021/04/06 00:50:33;;;;;;;4.24;0.94;;;;;;;-2.17;73.43;99298.63;2042784;79;20308;-66
2021/04/06 00:53:59;;;;;;;5.21;0.92;;;;;;;-2.18;73.50;99290.13;2042048;79;20172;-67
2021/04/06 00:57:03;;;;;;;3.83;1.04;;;;;;;-2.21;73.77;99290.00;2042717;79;20219;-67
2021/04/06 01:00:29;;;;;;;4.43;0.76;;;;;;;-2.23;74.07;99289.06;2042397;79;20226;-67
2021/04/06 01:03:31;;;;;;;4.86;0.96;;;;;;;-2.28;74.18;99282.06;2041996;79;20171;-66
2021/04/06 01:07:06;;;;;;;3.48;0.70;;;;;;;-2.28;74.37;99276.97;2047136;79;20177;-66
2021/04/06 01:10:08;;;;;;;3.02;0.74;;;;;;;-2.23;74.48;99273.81;2047951;79;20164;-67
2021/04/06 01:13:10;;;;;;;3.18;1.02;;;;;;;-2.26;74.24;99272.81;2047905;79;20788;-66
2021/04/06 01:16:12;;;;;;;6.07;0.90;;;;;;;-2.31;74.11;99267.53;2047473;76;20372;-67
2021/04/06 01:19:14;;;;;;;5.35;1.00;;;;;;;-2.33;74.34;99266.59;2047483;79;20188;-66
2021/04/06 01:22:19;;;;;;;3.87;0.80;;;;;;;-2.29;74.40;99270.16;2047614;79;20332;-67
2021/04/06 01:25:23;;;;;;;3.91;0.61;;;;;;;-2.27;74.22;99271.09;2047559;79;20730;-67
2021/04/06 01:28:31;;;;;;;4.21;0.74;;;;;;;-2.26;73.92;99273.69;2047427;79;20175;-68
2021/04/06 01:31:34;;;;;;;4.70;0.98;;;;;;;-2.21;73.71;99267.13;2047031;76;20657;-68
2021/04/06 01:34:39;;;;;;;5.27;1.13;;;;;;;-2.18;73.73;99266.38;2047626;79;20340;-67
2021/04/06 01:37:41;;;;;;;1.69;0.64;;;;;;;-2.16;73.47;99268.19;2047850;79;20616;-68
2021/04/06 01:40:44;;;;;;;3.36;0.91;;;;;;;-2.16;73.38;99265.63;2048411;79;20187;-67
2021/04/06 01:43:48;;;;;;;3.89;0.86;;;;;;;-2.16;73.66;99265.63;2047236;79;20183;-67
2021/04/06 01:46:50;;;;;;;3.41;0.96;;;;;;;-2.16;73.48;99265.63;2046029;76;20189;-67
2021/04/06 01:49:53;;;;;;;2.83;0.76;;;;;;;-2.14;73.44;99268.28;2048047;79;20717;-67
2021/04/06 01:52:59;;;;;;;3.24;0.73;;;;;;;-2.14;73.33;99273.38;2046765;79;20191;-67
2021/04/06 01:56:14;;;;;;;3.06;0.80;;;;;;;-2.13;73.32;99275.09;2047413;79;20340;-67
2021/04/06 01:59:29;;;;;;;4.49;1.32;;;;;;;-2.09;73.25;99276.97;2048324;79;20164;-67
2021/04/06 02:02:31;;;;;;;3.78;0.71;;;;;;;-2.07;73.48;99271.94;2047241;76;20523;-67
2021/04/06 02:05:33;;;;;;;4.48;0.80;;;;;;;-2.01;73.77;99274.75;2049419;79;20206;-67
2021/04/06 02:08:35;;;;;;;4.66;0.94;;;;;;;-1.91;73.91;99274.34;2048727;79;20196;-67
2021/04/06 02:11:38;;;;;;;3.17;0.64;;;;;;;-1.83;73.97;99273.84;2049213;79;20180;-67
2021/04/06 02:14:40;;;;;;;3.53;0.88;;;;;;;-1.76;73.69;99267.38;2048947;79;20168;-67
2021/04/06 02:17:50;;;;;;;2.56;0.87;;;;;;;-1.71;73.58;99262.47;2051106;76;26948;-67
2021/04/06 02:20:55;;;;;;;5.28;1.81;;;;;;;-1.68;73.34;99263.47;2045814;79;20171;-67
2021/04/06 02:23:57;;;;;;;5.43;1.36;;;;;;;-1.68;73.46;99263.47;2049034;79;20351;-67
2021/04/06 02:27:01;;;;;;;5.07;0.88;;;;;;;-1.67;73.34;99264.31;2048870;79;20152;-67
2021/04/06 02:30:09;;;;;;;2.59;0.62;;;;;;;-1.65;73.24;99262.72;2048887;79;21154;-67
2021/04/06 02:33:11;;;;;;;7.50;0.94;;;;;;;-1.62;72.97;99257.75;2048522;77;25909;-67
2021/04/06 02:36:12;;;;;;;2.97;0.70;;;;;;;-1.62;72.75;99256.06;2048453;79;20191;-67
2021/04/06 02:39:14;;;;;;;3.74;0.81;;;;;;;-1.64;72.52;99254.25;2049277;78;20190;-67
2021/04/06 02:42:33;;;;;;;4.49;0.55;;;;;;;-1.66;72.56;99258.44;2048755;79;20465;-67
2021/04/06 02:45:36;;;;;;;4.18;0.80;;;;;;;-1.69;72.43;99241.34;2047683;76;20781;-67
2021/04/06 02:48:38;;;;;;;2.94;0.78;;;;;;;-1.70;72.38;99252.34;2048741;79;20627;-67
2021/04/06 02:51:40;;;;;;;6.90;0.80;;;;;;;-1.67;72.35;99243.97;2048951;79;20892;-67
2021/04/06 02:54:42;;;;;;;6.28;1.10;;;;;;;-1.75;72.51;99251.28;2049312;79;20965;-67
2021/04/06 02:57:50;;;;;;;3.47;0.91;;;;;;;-1.75;72.60;99253.84;2048405;79;20711;-67
2021/04/06 03:00:51;;;;;;;6.79;0.76;;;;;;;-1.71;72.48;99257.38;2048669;76;20307;-67
2021/04/06 03:03:53;;;;;;;3.07;0.69;;;;;;;-1.70;72.63;99246.38;2048581;79;20722;-67
2021/04/06 03:06:56;;;;;;;5.87;0.97;;;;;;;-1.64;72.51;99244.09;2048884;79;20193;-67
2021/04/06 03:09:59;;;;;;;3.96;0.80;;;;;;;-1.58;72.33;99247.78;2051878;78;20163;-67
2021/04/06 03:13:09;;;;;;;4.00;0.90;;;;;;;-1.54;72.14;99241.13;2047991;78;20870;-65
2021/04/06 03:16:12;;;;;;;3.78;0.89;;;;;;;-1.52;72.02;99240.38;2047793;76;21479;-65
2021/04/06 03:19:13;;;;;;;1.70;0.62;;;;;;;-1.54;71.89;99234.34;2048348;79;20869;-65
2021/04/06 03:22:16;;;;;;;4.92;1.00;;;;;;;-1.54;71.78;99234.34;2048952;79;20217;-65
2021/04/06 03:25:18;;;;;;;2.89;0.98;;;;;;;-1.57;71.65;99231.69;2048176;79;20172;-65
2021/04/06 03:28:20;;;;;;;2.36;0.70;;;;;;;-1.58;71.75;99217.22;2051470;78;20306;-64
2021/04/06 03:31:21;;;;;;;3.74;0.80;;;;;;;-1.60;71.58;99228.16;2047089;76;21085;-65
2021/04/06 03:34:29;;;;;;;2.90;0.95;;;;;;;-1.66;71.60;99210.06;2048435;79;20351;-65
2021/04/06 03:37:31;;;;;;;5.17;0.70;;;;;;;-1.73;71.58;99218.28;2048072;79;20357;-65
2021/04/06 03:40:35;;;;;;;4.03;0.78;;;;;;;-1.78;71.49;99228.28;2048774;79;20209;-65
2021/04/06 03:43:40;;;;;;;5.62;0.73;;;;;;;-1.76;71.51;99220.69;2047979;79;20233;-65
2021/04/06 03:46:43;;;;;;;2.77;0.80;;;;;;;-1.79;71.78;99218.03;2048852;78;25776;-64
2021/04/06 03:49:48;;;;;;;2.68;0.60;;;;;;;-1.81;71.84;99205.22;2047886;79;20207;-64
2021/04/06 03:53:00;;;;;;;4.07;0.70;;;;;;;-1.83;71.90;99199.19;2047857;79;20245;-65
2021/04/06 03:56:06;;;;;;;5.00;1.22;;;;;;;-1.85;71.71;99198.28;2047644;79;20350;-64
2021/04/06 03:59:10;;;;;;;5.68;0.80;;;;;;;-1.82;71.67;99206.88;2048305;79;20185;-64
2021/04/06 04:02:12;;;;;;;2.98;0.69;;;;;;;-1.85;71.68;99205.91;2047490;76;22648;-64
2021/04/06 04:05:13;;;;;;;2.11;0.60;;;;;;;-1.88;71.88;99209.19;2047665;79;20559;-65
2021/04/06 04:08:15;;;;;;;2.68;0.99;;;;;;;-1.86;72.34;99210.13;2048577;79;20251;-65
2021/04/06 04:11:17;;;;;;;5.07;1.19;;;;;;;-1.80;72.62;99206.09;2047004;79;20676;-64
2021/04/06 04:14:19;;;;;;;3.45;0.80;;;;;;;-1.80;72.42;99213.72;2048134;79;20324;-64
2021/04/06 04:17:20;;;;;;;3.92;0.81;;;;;;;-1.74;72.38;99219.09;2048878;77;21676;-64
2021/04/06 04:20:23;;;;;;;5.20;1.51;;;;;;;-1.72;72.11;99214.91;2049873;78;20254;-64
2021/04/06 04:23:24;;;;;;;1.74;0.82;;;;;;;-1.70;72.15;99209.09;2048238;79;20302;-64
2021/04/06 04:26:26;;;;;;;3.57;0.76;;;;;;;-1.67;71.99;99216.84;2048575;79;20205;-64
2021/04/06 04:29:28;;;;;;;1.81;0.79;;;;;;;-1.68;71.75;99221.88;2047992;79;20706;-64
2021/04/06 04:32:29;;;;;;;3.52;0.78;;;;;;;-1.67;71.85;99221.94;2047020;76;20178;-64
2021/04/06 04:35:32;;;;;;;3.38;0.56;;;;;;;-1.63;72.06;99215.28;2047620;79;20217;-66
2021/04/06 04:38:33;;;;;;;3.56;0.99;;;;;;;-1.62;72.06;99214.47;2047926;79;20345;-64
2021/04/06 04:41:35;;;;;;;3.63;0.80;;;;;;;-1.62;71.87;99211.94;2048412;79;20318;-64
2021/04/06 04:44:37;;;;;;;5.19;1.19;;;;;;;-1.62;71.77;99215.34;2047977;79;20716;-64
2021/04/06 04:47:39;;;;;;;6.80;1.08;;;;;;;-1.66;71.64;99210.06;2047278;76;21021;-64
2021/04/06 04:50:40;;;;;;;4.65;0.80;;;;;;;-1.71;71.67;99203.94;2047798;79;20706;-64
2021/04/06 04:53:42;;;;;;;5.56;0.80;;;;;;;-1.67;71.65;99210.88;2047827;79;20306;-64
2021/04/06 04:56:44;;;;;;;4.14;1.01;;;;;;;-1.72;71.44;99205.59;2048314;79;20327;-63
2021/04/06 04:59:45;;;;;;;5.70;0.90;;;;;;;-1.70;71.48;99216.72;2047742;79;20679;-67
2021/04/06 05:02:47;;;;;;;3.87;1.11;;;;;;;-1.70;71.45;99214.16;2046814;76;20172;-67
2021/04/06 05:05:49;;;;;;;4.11;0.82;;;;;;;-1.71;71.40;99219.19;2047316;79;20184;-67
2021/04/06 05:08:51;;;;;;;3.77;1.22;;;;;;;-1.74;71.59;99217.41;2047812;79;20167;-68
2021/04/06 05:11:54;;;;;;;3.81;0.71;;;;;;;-1.71;71.89;99209.88;2047682;79;20189;-68
2021/04/06 05:14:56;;;;;;;3.79;0.93;;;;;;;-1.65;72.08;99214.34;2047818;79;20331;-68
2021/04/06 05:17:58;;;;;;;5.43;0.76;;;;;;;-1.58;72.22;99221.44;2047431;76;20336;-67
2021/04/06 05:20:59;;;;;;;6.79;0.76;;;;;;;-1.52;72.32;99221.69;2047823;79;21436;-67
2021/04/06 05:24:01;;;;;;;2.58;0.93;;;;;;;-1.43;72.31;99222.06;2047471;79;20175;-67
2021/04/06 05:27:03;;;;;;;5.36;0.87;;;;;;;-1.37;72.34;99218.88;2047559;79;20559;-67
2021/04/06 05:30:06;;;;;;;3.77;1.00;;;;;;;-1.34;72.67;99221.56;2044901;79;20184;-67
2021/04/06 05:33:08;;;;;;;3.29;0.83;;;;;;;-1.26;72.49;99222.72;2044609;76;20201;-68
2021/04/06 05:36:09;;;;;;;3.40;0.93;;;;;;;-1.18;72.17;99223.91;2045413;79;20193;-68
2021/04/06 05:39:11;;;;;;;1.98;0.80;;;;;;;-1.11;71.86;99230.09;2045941;79;20368;-67
2021/04/06 05:42:14;;;;;;;7.06;1.17;;;;;;;-1.00;71.71;99234.81;2045445;79;20338;-67
2021/04/06 05:45:19;;;;;;;2.23;1.14;;;;;;;-0.91;71.52;99232.59;2044305;76;22079;-67
2021/04/06 05:48:21;;;;;;;6.59;0.70;;;;;;;-0.80;71.42;99235.56;2044600;79;20193;-67
2021/04/06 05:51:24;;;;;;;2.60;0.57;;;;;;;-0.75;71.30;99236.59;2044694;79;20348;-67
2021/04/06 05:54:27;;;;;;;2.65;0.93;;;;;;;-0.68;71.38;99241.13;2045592;79;20314;-67
2021/04/06 05:57:29;;;;;;;3.04;0.74;;;;;;;-0.64;71.30;99237.88;2044980;79;20306;-67
2021/04/06 06:00:31;;;;;;;4.68;0.98;;;;;;;-0.55;71.13;99227.13;2045005;76;21247;-67
2021/04/06 06:03:32;;;;;;;5.74;1.26;;;;;;;-0.43;70.88;99230.13;2045339;79;20338;-67
2021/04/06 06:06:36;;;;;;;4.69;0.77;;;;;;;-0.34;70.69;99227.06;2045284;79;20365;-67
2021/04/06 06:09:38;;;;;;;2.15;0.70;;;;;;;-0.21;70.57;99224.13;2045806;79;20298;-68
2021/04/06 06:12:40;;;;;;;2.78;0.79;;;;;;;-0.16;70.27;99227.72;2045233;79;20871;-68
2021/04/06 06:15:42;;;;;;;4.16;1.16;;;;;;;-0.05;70.21;99226.41;2044715;78;20442;-68
2021/04/06 06:19:06;;;;;;;2.89;0.69;;;;;;;0.10;70.02;99226.06;2046429;79;20350;-68
2021/04/06 06:22:18;;;;;;;4.19;0.81;;;;;;;0.35;69.13;99225.19;2045285;79;20903;-68
2021/04/06 06:25:20;;;;;;;3.58;0.80;;;;;;;0.74;68.31;99229.88;2045313;79;20318;-68
2021/04/06 06:28:22;;;;;;;2.60;0.50;;;;;;;1.41;66.12;99229.38;2045574;79;20310;-67
2021/04/06 06:31:42;;;;;;;2.95;0.94;;;;;;;1.99;64.07;99233.56;2044523;78;22858;-68
2021/04/06 06:34:44;;;;;;;3.31;0.74;;;;;;;2.70;61.82;99232.00;2045359;79;20470;-68
2021/04/06 06:37:50;;;;;;;4.39;1.09;;;;;;;3.02;60.08;99225.91;2049340;78;20363;-67
2021/04/06 06:40:56;;;;;;;1.79;0.71;;;;;;;2.55;60.42;99222.22;2045839;79;20481;-67
2021/04/06 06:43:58;;;;;;;3.25;0.90;;;;;;;2.96;59.05;99227.47;2046262;79;20847;-68
2021/04/06 06:47:13;;;;;;;3.46;0.75;;;;;;;3.49;58.50;99222.66;2045627;76;20871;-68
2021/04/06 06:50:15;;;;;;;2.29;0.75;;;;;;;3.91;57.16;99223.50;2045498;79;20679;-70
2021/04/06 06:53:31;;;;;;;2.59;0.70;;;;;;;3.98;56.88;99219.38;2046118;79;20334;-66
2021/04/06 06:56:41;;;;;;;3.40;0.82;;;;;;;4.16;56.32;99214.56;2045983;79;20362;-67
2021/04/06 06:59:47;;;;;;;3.14;0.80;;;;;;;4.34;55.47;99219.19;2045782;79;20931;-65
2021/04/06 07:02:48;;;;;;;3.00;0.76;;;;;;;4.52;55.59;99216.06;2044737;77;21823;-67
2021/04/06 07:05:50;;;;;;;3.85;0.70;;;;;;;4.50;54.33;99216.03;2044807;79;20410;-68
2021/04/06 07:08:52;;;;;;;2.74;0.90;;;;;;;4.57;54.55;99218.69;2045918;79;20457;-66
2021/04/06 07:12:00;;;;;;;2.71;0.69;;;;;;;4.72;54.59;99226.66;2046064;79;20334;-67
2021/04/06 07:15:02;;;;;;;6.06;0.99;;;;;;;4.57;54.34;99218.69;2045943;79;20331;-66
2021/04/06 07:18:14;;;;;;;2.33;0.68;;;;;;;4.18;54.93;99222.31;2045445;77;20192;-66
2021/04/06 07:21:18;;;;;;;3.95;0.84;;;;;;;3.86;55.60;99225.13;2046752;79;20380;-65
2021/04/06 07:24:25;;;;;;;3.60;0.77;;;;;;;3.78;56.99;99220.69;2045757;79;20322;-64
2021/04/06 07:27:27;;;;;;;2.69;0.80;;;;;;;3.58;56.89;99220.25;2045934;79;20332;-66
2021/04/06 07:30:29;;;;;;;3.15;0.76;;;;;;;3.48;57.47;99215.78;2045404;76;20494;-65
2021/04/06 07:33:32;;;;;;;4.19;1.16;;;;;;;3.33;57.88;99208.63;2046006;79;20423;-66
2021/04/06 07:36:35;;;;;;;4.01;2.06;;;;;;;3.38;58.44;99211.28;2046176;79;20344;-66
2021/04/06 07:39:40;;;;;;;2.80;0.85;;;;;;;3.86;58.32;99212.28;2045651;79;20842;-67
2021/04/06 07:42:44;;;;;;;1.88;0.90;;;;;;;4.45;57.59;99209.06;2046516;79;20310;-68
2021/04/06 07:45:46;;;;;;;3.42;0.80;;;;;;;5.08;56.04;99210.94;2044943;76;21212;-69
2021/04/06 07:48:50;;;;;;;3.81;0.74;;;;;;;5.39;53.99;99218.25;2046651;79;20846;-67
2021/04/06 07:51:55;;;;;;;3.71;0.80;;;;;;;5.14;52.67;99217.00;2045321;79;20356;-69
2021/04/06 07:54:56;;;;;;;3.60;0.80;;;;;;;4.76;53.65;99225.88;2046862;79;20322;-68
2021/04/06 07:57:58;;;;;;;2.11;0.86;;;;;;;4.44;54.50;99223.63;2048590;79;20322;-67
2021/04/06 08:01:05;;;;;;;3.76;0.90;;;;;;;4.15;55.44;99222.25;2047348;76;20376;-68
2021/04/06 08:04:13;;;;;;;3.58;0.94;;;;;;;3.98;56.20;99223.66;2048462;79;20923;-67
2021/04/06 08:07:32;;;;;;;3.41;0.75;;;;;;;3.75;56.13;99231.75;2048096;79;20324;-68
2021/04/06 08:10:35;;;;;;;3.08;0.61;;;;;;;3.82;57.20;99212.19;2048507;79;20302;-69
2021/04/06 08:13:38;;;;;;;4.30;0.80;;;;;;;4.37;56.99;99214.09;2048052;79;20197;-68
2021/04/06 08:16:42;;;;;;;2.44;1.44;;;;;;;5.11;55.30;99201.53;2047554;76;20743;-68
2021/04/06 08:20:12;;;;;;;2.92;0.90;;;;;;;5.60;53.45;99212.50;2047913;79;20377;-68
2021/04/06 08:23:42;;;;;;;2.59;0.93;;;;;;;6.05;52.18;99212.19;2047766;79;20901;-67
2021/04/06 08:26:44;;;;;;;1.84;0.70;;;;;;;6.53;50.71;99210.94;2048549;79;20324;-68
2021/04/06 08:29:46;;;;;;;2.85;0.73;;;;;;;6.85;49.68;99207.78;2048037;79;20332;-68
2021/04/06 08:33:00;;;;;;;1.80;0.74;;;;;;;6.69;48.90;99204.19;2046884;79;20302;-68
2021/04/06 08:36:02;;;;;;;2.81;1.10;;;;;;;6.50;50.28;99207.47;2047588;79;20364;-68
2021/04/06 08:39:04;;;;;;;3.97;1.06;;;;;;;6.67;49.85;99205.91;2048485;79;20369;-68
2021/04/06 08:42:07;;;;;;;1.52;0.74;;;;;;;7.01;48.88;99212.19;2048064;79;20810;-67
2021/04/06 08:45:09;;;;;;;2.09;0.68;;;;;;;7.00;48.76;99220.75;2047837;79;20310;-68
2021/04/06 08:48:11;;;;;;;3.00;1.21;;;;;;;6.80;49.62;99219.75;2047017;76;21301;-67
2021/04/06 08:51:27;;;;;;;4.22;0.74;;;;;;;6.54;49.69;99219.53;2047958;79;20316;-68
2021/04/06 08:54:32;;;;;;;3.25;1.04;;;;;;;6.28;50.47;99224.44;2048451;79;21024;-67
2021/04/06 08:57:33;;;;;;;3.55;0.96;;;;;;;5.99;50.23;99226.72;2047896;79;20322;-67
2021/04/06 09:00:35;;;;;;;2.76;0.70;;;;;;;5.97;50.96;99224.13;2046791;76;22238;-67
2021/04/06 09:03:39;;;;;;;3.96;0.81;;;;;;;6.01;50.80;99215.59;2047127;79;20438;-67
2021/04/06 09:06:43;;;;;;;4.70;0.85;;;;;;;6.03;51.44;99211.31;2047573;79;20398;-67
2021/04/06 09:09:45;;;;;;;3.74;0.94;;;;;;;6.05;51.45;99219.91;2048191;79;20341;-68
2021/04/06 09:12:50;;;;;;;5.32;0.52;;;;;;;5.97;51.01;99216.41;2047600;79;20340;-68
2021/04/06 09:15:53;;;;;;;4.04;1.14;;;;;;;6.30;50.78;99208.16;2046534;76;20702;-68
2021/04/06 09:18:57;;;;;;;2.17;0.60;;;;;;;6.68;47.84;99202.47;2047638;79;20330;-67
2021/04/06 09:22:01;;;;;;;3.10;1.49;;;;;;;7.05;49.33;99215.66;2047828;79;20716;-69
2021/04/06 09:25:32;;;;;;;1.55;0.59;;;;;;;7.37;48.76;99200.34;2047004;79;20885;-67
2021/04/06 09:28:34;;;;;;;5.55;0.75;;;;;;;7.30;46.95;99203.75;2044328;79;20330;-67
2021/04/06 09:31:43;;;;;;;1.38;0.50;;;;;;;7.00;47.41;99199.25;2048363;76;23196;-68
2021/04/06 09:34:47;;;;;;;3.34;0.91;;;;;;;6.73;47.87;99203.38;2047622;79;20718;-68
2021/04/06 09:37:49;;;;;;;3.66;1.01;;;;;;;6.55;49.11;99192.91;2047458;79;20193;-68
2021/04/06 09:40:52;;;;;;;2.83;0.70;;;;;;;6.53;49.32;99198.03;2047666;79;20306;-67
2021/04/06 09:43:54;;;;;;;3.20;0.80;;;;;;;6.53;48.44;99198.03;2047542;79;20295;-68
2021/04/06 09:47:02;;;;;;;3.44;0.76;;;;;;;6.51;48.09;99193.72;2046709;77;23328;-67
2021/04/06 09:50:09;;;;;;;2.13;0.81;;;;;;;6.54;47.08;99191.16;2048232;79;20354;-68
2021/04/06 09:53:17;;;;;;;2.35;0.69;;;;;;;6.62;45.76;99185.22;2047228;79;20310;-68
2021/04/06 09:56:19;;;;;;;2.03;0.66;;;;;;;6.63;44.97;99192.09;2045740;79;20332;-67
2021/04/06 09:59:21;;;;;;;2.08;0.40;;;;;;;6.61;44.32;99182.63;2046411;79;20209;-68
2021/04/06 10:02:28;;;;;;;4.05;0.68;;;;;;;6.84;44.44;99169.91;2044987;77;22199;-68
2021/04/06 10:05:30;;;;;;;1.86;0.50;;;;;;;7.17;41.90;99167.50;2046381;79;20332;-68
2021/04/06 10:08:33;;;;;;;1.42;0.54;;;;;;;7.31;42.78;99179.66;2045647;79;20334;-68
2021/04/06 10:11:35;;;;;;;1.67;0.66;;;;;;;7.51;42.12;99172.84;2046083;79;20372;-67
2021/04/06 10:14:38;;;;;;;1.80;0.60;;;;;;;8.18;42.20;99166.16;2046895;79;20326;-68
2021/04/06 10:17:41;;;;;;;1.40;0.60;;;;;;;8.50;40.85;99161.91;2045926;77;20324;-68
2021/04/06 10:20:49;;;;;;;2.22;0.86;;;;;;;8.28;39.08;99161.00;2047771;79;20190;-68
2021/04/06 10:24:00;;;;;;;2.85;0.60;;;;;;;7.99;39.24;99145.44;2046415;79;20183;-68
2021/04/06 10:27:27;;;;;;;3.44;0.45;;;;;;;7.94;37.90;99149.75;2047545;79;20335;-67
2021/04/06 10:30:39;;;;;;;2.26;0.60;;;;;;;8.35;38.82;99150.69;2045667;76;20268;-68
2021/04/06 10:33:41;;;;;;;3.33;0.50;;;;;;;8.68;38.22;99136.03;2047369;79;20557;-67
2021/04/06 10:37:00;;;;;;;2.01;0.59;;;;;;;8.70;38.85;99140.34;2046544;79;20175;-68
2021/04/06 10:40:02;;;;;;;2.36;0.70;;;;;;;8.00;39.95;99144.59;2048576;79;20183;-67
2021/04/06 10:43:11;;;;;;;3.49;0.76;;;;;;;7.22;41.88;99154.66;2047744;79;20636;-67
2021/04/06 10:46:18;;;;;;;2.09;0.64;;;;;;;6.90;42.22;99146.72;2046463;76;20816;-67
2021/04/06 10:49:20;;;;;;;1.63;0.60;;;;;;;6.53;44.37;99151.63;2046664;79;20193;-67
2021/04/06 10:52:30;;;;;;;1.06;0.40;;;;;;;6.13;45.57;99150.41;2046882;79;20340;-67
2021/04/06 10:55:35;;;;;;;1.66;0.64;;;;;;;5.82;47.27;99141.47;2047072;79;20318;-67
2021/04/06 10:58:49;;;;;;;1.88;0.61;;;;;;;5.79;47.34;99125.13;2046237;79;20320;-67
2021/04/06 11:01:52;;;;;;;2.03;0.50;;;;;;;6.55;47.74;99120.69;2048040;76;23477;-68
2021/04/06 11:04:54;;;;;;;1.76;0.54;;;;;;;7.48;46.38;99114.28;2050377;78;20199;-69
2021/04/06 11:07:56;;;;;;;0.80;0.44;;;;;;;8.56;42.59;99098.06;2047239;79;20851;-68
2021/04/06 11:11:18;;;;;;;1.40;0.41;;;;;;;9.18;39.26;99098.81;2046976;79;20312;-68
2021/04/06 11:14:23;;;;;;;1.17;0.50;;;;;;;9.41;38.63;99083.16;2046662;79;20156;-68
2021/04/06 11:17:25;;;;;;;3.69;0.80;;;;;;;9.08;39.40;99090.19;2045695;76;20176;-67
2021/04/06 11:20:28;;;;;;;1.84;0.66;;;;;;;8.73;39.04;99092.88;2046030;79;20647;-67
2021/04/06 11:23:30;;;;;;;2.20;0.55;;;;;;;8.36;39.07;99100.69;2046500;79;20197;-67
2021/04/06 11:26:32;;;;;;;1.10;0.30;;;;;;;8.01;38.73;99117.88;2046542;78;20168;-69
2021/04/06 11:29:35;;;;;;;0.44;0.30;;;;;;;7.58;39.82;99118.63;2046671;79;20564;-67
2021/04/06 11:32:37;;;;;;;0.30;0.30;;;;;;;7.16;40.33;99110.69;2044656;76;20325;-66
2021/04/06 11:35:39;;;;;;;0.51;0.22;;;;;;;6.80;40.93;99122.56;2045661;79;20553;-69
2021/04/06 11:38:42;;;;;;;1.44;0.32;;;;;;;6.49;41.86;99118.06;2045286;79;20188;-66
2021/04/06 11:41:49;;;;;;;3.15;0.30;;;;;;;6.27;42.75;99107.56;2045994;79;20294;-67
2021/04/06 11:44:50;;;;;;;1.80;0.41;;;;;;;6.50;44.08;99110.34;2045692;79;20318;-67
2021/04/06 11:47:54;;;;;;;0.95;0.40;;;;;;;7.39;43.52;99106.53;2046769;76;28416;-68
2021/04/06 11:50:56;;;;;;;2.59;0.39;;;;;;;8.09;43.93;99118.75;2044099;79;20364;-67
2021/04/06 11:53:58;;;;;;;0.89;0.34;;;;;;;7.70;48.30;99163.44;2043800;79;20302;-67
2021/04/06 11:57:00;;;;;;;1.27;0.28;;;;;;;6.91;52.02;99171.66;2044511;79;20799;-65
2021/04/06 12:00:05;;;;;;;0.71;0.22;;;;;;;5.91;55.10;99169.94;2043899;79;20902;-66
2021/04/06 12:03:06;;;;;;;1.06;0.20;;;;;;;5.11;57.86;99164.66;2043773;76;20937;-66
2021/04/06 12:06:08;;;;;;;0.26;0.20;;;;;;;4.48;59.90;99162.84;2043623;79;20322;-68
2021/04/06 12:09:11;;;;;;;0.56;0.30;;;;;;;4.15;61.54;99156.31;2044038;79;20850;-67
2021/04/06 12:12:13;;;;;;;0.59;0.30;;;;;;;3.78;62.94;99147.09;2044118;79;20344;-67
2021/04/06 12:15:15;;;;;;;0.76;0.29;;;;;;;3.78;63.74;99141.09;2043181;77;22016;-68
2021/04/06 12:18:17;;;;;;;1.41;0.30;;;;;;;3.76;64.36;99137.59;2045723;79;20336;-67
2021/04/06 12:21:18;;;;;;;1.63;0.40;;;;;;;3.89;65.44;99121.59;2046063;79;20327;-66
2021/04/06 12:24:22;;;;;;;1.16;0.50;;;;;;;4.03;65.61;99120.13;2044950;79;20335;-67
2021/04/06 12:27:24;;;;;;;0.32;0.25;;;;;;;4.28;65.23;99115.38;2045342;79;20364;-66
2021/04/06 12:30:26;;;;;;;0.31;0.30;;;;;;;4.80;66.27;99117.91;2044814;76;20485;-67
2021/04/06 12:33:28;;;;;;;2.41;0.64;;;;;;;5.57;64.10;99116.31;2045189;79;20310;-67
2021/04/06 12:36:29;;;;;;;2.76;0.59;;;;;;;6.20;60.95;99103.22;2045842;79;20298;-67
2021/04/06 12:39:31;;;;;;;2.46;0.60;;;;;;;6.82;58.36;99096.75;2045970;79;20336;-68
2021/04/06 12:42:32;;;;;;;1.06;0.34;;;;;;;7.36;55.08;99082.38;2046542;79;20302;-67
2021/04/06 12:45:34;;;;;;;1.49;0.43;;;;;;;7.96;55.71;99075.63;2046341;76;20352;-68
2021/04/06 12:48:36;;;;;;;1.27;0.50;;;;;;;8.56;56.14;99063.56;2045743;79;20302;-67
2021/04/06 12:51:38;;;;;;;1.84;0.50;;;;;;;8.34;51.23;99061.03;2046445;79;20323;-68
2021/04/06 12:54:40;;;;;;;1.99;0.64;;;;;;;7.94;50.04;99067.88;2045159;79;20653;-68
2021/04/06 12:57:42;;;;;;;0.89;0.40;;;;;;;7.61;51.82;99081.63;2045476;79;20310;-68
2021/04/06 13:00:43;;;;;;;1.67;0.44;;;;;;;7.24;50.73;99098.72;2044353;76;20247;-67
2021/04/06 13:03:45;;;;;;;1.95;0.40;;;;;;;6.63;50.42;99098.34;2045868;79;20340;-67
2021/04/06 13:06:46;;;;;;;1.55;0.41;;;;;;;6.09;53.01;99096.22;2045999;79;20310;-67
2021/04/06 13:09:49;;;;;;;1.39;0.46;;;;;;;5.57;55.40;99094.00;2045996;79;20344;-67
2021/04/06 13:12:53;;;;;;;1.13;0.50;;;;;;;5.04;56.21;99080.50;2045979;79;20699;-68
2021/04/06 13:15:55;;;;;;;0.66;0.51;;;;;;;4.60;59.19;99082.47;2044922;76;22925;-67
2021/04/06 13:18:57;;;;;;;0.85;0.39;;;;;;;4.44;60.70;99073.66;2047048;79;20330;-66
2021/04/06 13:21:59;;;;;;;2.56;0.45;;;;;;;4.29;61.40;99065.72;2046245;79;20322;-66
2021/04/06 13:25:01;;;;;;;2.03;0.40;;;;;;;4.22;61.03;99060.50;2046523;79;20392;-65
2021/04/06 13:28:03;;;;;;;1.34;0.64;;;;;;;4.16;61.91;99054.41;2046137;79;20806;-65
2021/04/06 13:31:05;;;;;;;2.16;0.40;;;;;;;4.31;63.16;99043.47;2044555;76;26096;-65
2021/04/06 13:34:08;;;;;;;3.21;0.40;;;;;;;4.66;62.48;99036.25;2044109;79;20310;-65
2021/04/06 13:37:09;;;;;;;0.86;0.35;;;;;;;5.29;61.99;99033.63;2044488;79;20417;-65
2021/04/06 13:40:14;;;;;;;0.52;0.30;;;;;;;5.87;59.33;99052.22;2044232;79;20336;-66
2021/04/06 13:43:16;;;;;;;1.27;0.40;;;;;;;6.02;57.15;99054.09;2044690;79;21317;-66
2021/04/06 13:46:18;;;;;;;3.50;0.50;;;;;;;5.67;57.04;99054.59;2045116;76;20968;-66
2021/04/06 13:49:20;;;;;;;2.01;0.43;;;;;;;5.28;57.88;99064.47;2044912;79;20348;-66
2021/04/06 13:52:21;;;;;;;2.01;0.30;;;;;;;5.06;60.43;99061.66;2043714;79;20369;-66
2021/04/06 13:55:24;;;;;;;2.01;0.65;;;;;;;4.92;61.06;99052.03;2043677;79;20352;-66
2021/04/06 13:58:26;;;;;;;1.44;0.50;;;;;;;4.75;60.79;99049.25;2043776;79;20342;-66
2021/04/06 14:01:28;;;;;;;2.10;0.36;;;;;;;4.54;60.72;99049.84;2042574;76;20334;-66
2021/04/06 14:04:29;;;;;;;1.64;0.46;;;;;;;4.44;61.16;99027.41;2043618;79;20332;-66
2021/04/06 14:07:31;;;;;;;1.44;0.57;;;;;;;4.70;62.14;99020.91;2043046;79;20310;-66
2021/04/06 14:10:34;;;;;;;2.53;0.50;;;;;;;5.00;61.29;99012.69;2043350;79;20302;-66
2021/04/06 14:13:36;;;;;;;1.40;0.40;;;;;;;5.18;58.44;99004.31;2044029;79;21386;-66
2021/04/06 14:16:38;;;;;;;2.54;0.44;;;;;;;5.39;57.31;99017.44;2043407;76;20314;-66
2021/04/06 14:19:39;;;;;;;1.56;0.50;;;;;;;5.47;53.80;99008.06;2044399;78;20310;-66
2021/04/06 14:22:42;;;;;;;1.27;0.70;;;;;;;5.72;52.61;99000.53;2043897;79;20309;-66
2021/04/06 14:25:44;;;;;;;3.35;0.50;;;;;;;6.05;53.52;98994.84;2044024;79;20369;-66
2021/04/06 14:28:46;;;;;;;1.85;0.60;;;;;;;6.30;49.54;98991.59;2043955;79;20338;-66
2021/04/06 14:31:47;;;;;;;1.15;0.60;;;;;;;6.52;50.01;98995.16;2043306;76;22395;-66
2021/04/06 14:34:49;;;;;;;1.50;0.43;;;;;;;6.71;48.67;98990.94;2043682;79;20761;-66